createdAt,value
2018-12-29T00:08:41.086Z,101488.75
2018-12-29T00:13:59.551Z,101486.50
2018-12-29T00:19:18.315Z,101499.95
2018-12-29T00:24:36.792Z,101500.09
2018-12-29T00:29:55.257Z,101500.09
2018-12-29T00:35:13.936Z,101499.25
2018-12-29T00:40:32.467Z,101494.34
2018-12-29T00:45:50.939Z,101495.75
2018-12-29T00:51:09.623Z,101507.41
2018-12-29T00:56:28.157Z,101508.86
2018-12-29T01:01:46.691Z,101524.83
2018-12-29T01:12:36.619Z,101516.36
2018-12-29T01:23:25.609Z,101520.52
2018-12-29T01:28:44.089Z,101507.78
2018-12-29T01:34:02.582Z,101509.09
2018-12-29T01:39:21.067Z,101508.19
2018-12-29T01:44:39.531Z,101512.59
2018-12-29T01:49:58.012Z,101517.56
2018-12-29T01:55:16.495Z,101511.34
2018-12-29T02:00:35.044Z,101513.03
2018-12-29T02:05:53.556Z,101516.45
2018-12-29T02:11:12.039Z,101506.33
2018-12-29T02:16:30.517Z,101500.28
2018-12-29T02:21:49.064Z,101504.59
2018-12-29T02:27:07.605Z,101509.46
2018-12-29T02:37:58.537Z,101516.12
2018-12-29T02:43:17.022Z,101520.19
2018-12-29T02:48:35.487Z,101520.70
2018-12-29T02:53:53.968Z,101523.23
2018-12-29T02:59:12.858Z,101518.55
2018-12-29T03:04:31.380Z,101512.47
2018-12-29T03:09:49.858Z,101518.08
2018-12-29T03:15:08.446Z,101526.09
2018-12-29T03:20:26.917Z,101518.45
2018-12-29T03:25:45.394Z,101518.69
2018-12-29T03:31:03.936Z,101535.88
2018-12-29T03:36:22.416Z,101537.66
2018-12-29T03:41:40.955Z,101523.70
2018-12-29T03:46:59.420Z,101527.17
2018-12-29T03:52:18.034Z,101525.62
2018-12-29T03:57:36.515Z,101519.53
2018-12-29T04:02:54.985Z,101510.95
2018-12-29T04:08:13.455Z,101509.17
2018-12-29T04:13:32.389Z,101507.16
2018-12-29T04:18:50.843Z,101502.38
2018-12-29T04:24:09.661Z,101490.09
2018-12-29T04:29:47.464Z,101479.36
2018-12-29T04:35:06.080Z,101479.36
2018-12-29T04:40:24.910Z,101465.19
2018-12-29T04:51:15.837Z,101452.44
2018-12-29T04:56:34.297Z,101442.27
2018-12-29T05:01:52.764Z,101449.55
2018-12-29T05:07:11.239Z,101454.55
2018-12-29T05:12:29.858Z,101457.45
2018-12-29T05:17:48.322Z,101459.22
2018-12-29T05:23:06.806Z,101457.57
2018-12-29T05:28:25.303Z,101455.06
2018-12-29T05:33:43.767Z,101467.56
2018-12-29T05:39:02.270Z,101469.48
2018-12-29T05:44:20.733Z,101475.23
2018-12-29T05:49:39.315Z,101477.48
2018-12-29T06:00:30.231Z,101486.20
2018-12-29T06:05:48.708Z,101488.95
2018-12-29T06:11:07.172Z,101503.97
2018-12-29T06:16:27.892Z,101504.81
2018-12-29T06:21:45.900Z,101513.52
2018-12-29T06:27:04.834Z,101515.56
2018-12-29T06:32:23.297Z,101527.85
2018-12-29T06:37:41.845Z,101529.73
2018-12-29T06:43:00.315Z,101519.85
2018-12-29T06:48:18.831Z,101523.80
2018-12-29T06:53:37.618Z,101526.90
2018-12-29T06:58:56.213Z,101522.60
2018-12-29T07:04:14.627Z,101525.11
2018-12-29T07:09:33.112Z,101530.49
2018-12-29T07:14:51.742Z,101530.49
2018-12-29T07:20:10.226Z,101531.92
2018-12-29T07:25:28.703Z,101539.29
2018-12-29T07:30:47.457Z,101548.03
2018-12-29T07:36:05.927Z,101553.62
2018-12-29T07:41:24.463Z,101555.78
2018-12-29T07:46:49.399Z,101539.91
2018-12-29T07:52:03.280Z,101555.53
2018-12-29T07:57:21.755Z,101551.25
2018-12-29T08:02:40.303Z,101539.08
2018-12-29T08:07:58.844Z,101533.94
2018-12-29T08:13:17.309Z,101532.38
2018-12-29T08:18:35.777Z,101541.24
2018-12-29T08:23:54.327Z,101536.11
2018-12-29T08:29:12.816Z,101527.27
2018-12-29T08:34:31.407Z,101525.00
2018-12-29T08:39:49.955Z,101525.72
2018-12-29T08:50:38.948Z,101513.53
2018-12-29T08:55:57.579Z,101506.83
2018-12-29T09:01:16.087Z,101493.55
2018-12-29T09:12:07.142Z,101503.25
2018-12-29T09:17:25.611Z,101506.69
2018-12-29T09:22:44.449Z,101498.11
2018-12-29T09:28:02.936Z,101509.92
2018-12-29T09:33:21.477Z,101504.42
2018-12-29T09:38:39.987Z,101500.83
2018-12-29T09:43:58.498Z,101500.95
2018-12-29T09:54:47.417Z,101496.29
2018-12-29T10:00:46.219Z,101481.47
2018-12-29T10:06:04.713Z,101469.27
2018-12-29T10:11:23.255Z,101460.77
2018-12-29T10:16:41.731Z,101439.45
2018-12-29T10:22:00.277Z,101419.00
2018-12-29T10:27:18.933Z,101406.06
2018-12-29T10:32:37.405Z,101391.91
2018-12-29T10:37:55.883Z,101391.55
2018-12-29T10:43:14.395Z,101396.91
2018-12-29T10:48:32.875Z,101380.92
2018-12-29T10:53:51.565Z,101389.37
2018-12-29T10:59:10.062Z,101396.28
2018-12-29T11:04:28.548Z,101399.31
2018-12-29T11:09:47.025Z,101384.89
2018-12-29T11:15:05.871Z,101385.56
2018-12-29T11:20:24.530Z,101368.21
2018-12-29T11:31:15.589Z,101320.72
2018-12-29T11:42:04.582Z,101323.50
2018-12-29T11:47:23.359Z,101335.50
2018-12-29T11:52:41.850Z,101348.39
2018-12-29T11:58:00.391Z,101335.97
2018-12-29T12:03:38.586Z,101327.89
2018-12-29T12:14:29.514Z,101277.52
2018-12-29T12:19:47.996Z,101282.39
2018-12-29T12:25:06.606Z,101294.25
2018-12-29T12:30:25.222Z,101289.70
2018-12-29T12:35:59.567Z,101262.04
2018-12-29T12:41:04.331Z,101265.66
2018-12-29T12:57:43.233Z,101226.13
2018-12-29T13:08:35.794Z,101246.25
2018-12-29T13:13:54.283Z,101261.98
2018-12-29T13:19:12.747Z,101236.19
2018-12-29T13:24:31.222Z,101225.80
2018-12-29T13:35:39.546Z,101192.08
2018-12-29T13:40:58.054Z,101192.08
2018-12-29T13:46:16.598Z,101194.94
2018-12-29T13:51:35.140Z,101216.86
2018-12-29T14:02:26.208Z,101164.05
2018-12-29T14:07:58.587Z,101124.45
2018-12-29T14:13:17.261Z,101126.38
2018-12-29T14:18:35.811Z,101115.75
2018-12-29T14:23:54.287Z,101111.34
2018-12-29T14:34:43.213Z,101103.31
2018-12-29T14:40:01.694Z,101106.07
2018-12-29T14:45:21.878Z,101090.27
2018-12-29T14:50:59.755Z,101090.14
2018-12-29T14:56:18.241Z,101070.09
2018-12-29T15:01:36.691Z,101078.61
2018-12-29T15:06:55.298Z,101058.47
2018-12-29T15:12:14.086Z,101071.06
2018-12-29T15:17:32.573Z,101041.41
2018-12-29T15:22:52.777Z,100991.06
2018-12-29T15:28:11.334Z,100995.60
2018-12-29T15:34:11.531Z,101012.46
2018-12-29T15:39:32.048Z,101031.19
2018-12-29T15:44:50.519Z,101076.61
2018-12-29T15:55:41.709Z,101097.87
2018-12-29T16:01:01.913Z,101080.02
2018-12-29T16:06:20.381Z,101068.71
2018-12-29T16:17:11.539Z,101047.51
2018-12-29T16:22:29.992Z,101067.45
2018-12-29T16:27:48.480Z,101056.56
2018-12-29T16:33:07.359Z,101055.41
2018-12-29T16:38:45.213Z,101047.45
2018-12-29T16:44:03.912Z,101049.44
2018-12-29T16:49:43.449Z,101037.75
2018-12-29T16:55:01.992Z,101037.75
2018-12-29T17:00:20.976Z,101036.63
2018-12-29T17:05:52.136Z,101042.24
2018-12-29T17:16:32.473Z,101009.05
2018-12-29T17:21:51.211Z,100998.86
2018-12-29T17:27:09.728Z,100986.59
2018-12-29T17:32:28.270Z,100996.71
2018-12-29T17:37:46.779Z,100987.02
2018-12-29T17:48:37.818Z,100985.38
2018-12-29T17:53:57.105Z,100986.70
2018-12-29T17:59:17.507Z,100992.08
2018-12-29T18:10:41.875Z,100985.46
2018-12-29T18:15:47.911Z,100984.28
2018-12-29T18:21:06.444Z,100984.46
2018-12-29T18:31:57.172Z,100965.92
2018-12-29T18:37:15.648Z,100972.02
2018-12-29T18:48:04.614Z,100981.96
2018-12-29T18:53:23.347Z,100968.13
2018-12-29T18:58:41.872Z,100968.82
2018-12-29T19:04:00.487Z,100966.77
2018-12-29T19:09:18.970Z,100946.20
2018-12-29T19:14:37.513Z,100966.38
2018-12-29T19:19:56.045Z,100962.64
2018-12-29T19:25:14.528Z,100975.74
2018-12-29T19:36:05.735Z,100981.22
2018-12-29T19:41:24.211Z,100985.84
2018-12-29T19:46:44.509Z,100971.91
2018-12-29T19:52:04.854Z,100957.22
2018-12-29T19:57:23.442Z,100951.80
2018-12-29T20:02:41.994Z,100939.84
2018-12-29T20:08:02.350Z,100940.19
2018-12-29T20:13:21.072Z,100941.56
2018-12-29T20:18:39.561Z,100948.02
2018-12-29T20:23:58.093Z,100942.11
2018-12-29T20:29:16.573Z,100942.16
2018-12-29T20:40:45.587Z,100946.80
2018-12-29T20:46:04.377Z,100956.91
2018-12-29T20:51:23.173Z,100946.53
2018-12-29T20:56:43.245Z,100946.38
2018-12-29T21:02:01.778Z,100968.55
2018-12-29T21:12:50.690Z,100971.88
2018-12-29T21:18:09.257Z,100975.84
2018-12-29T21:23:27.720Z,100998.97
2018-12-29T21:40:45.655Z,101018.80
2018-12-29T21:46:04.436Z,101022.75
2018-12-29T21:51:23.548Z,101025.05
2018-12-29T21:56:42.124Z,101042.91
2018-12-29T22:02:00.660Z,101032.12
2018-12-29T22:12:51.652Z,101061.28
2018-12-29T22:18:10.196Z,101048.53
2018-12-29T22:23:28.664Z,101053.50
2018-12-29T22:28:47.207Z,101036.09
2018-12-29T22:34:05.667Z,101035.43
2018-12-29T22:39:24.138Z,101040.92
2018-12-29T22:44:42.686Z,101045.95
2018-12-29T22:50:01.182Z,101072.86
2018-12-29T22:55:19.719Z,101046.06
2018-12-29T23:11:40.853Z,101070.61
2018-12-29T23:16:59.396Z,101077.53
2018-12-29T23:22:17.866Z,101064.98
2018-12-29T23:27:36.337Z,101086.11
2018-12-29T23:32:54.800Z,101094.48
2018-12-29T23:43:45.356Z,101105.89
2018-12-29T23:49:03.923Z,101103.56
2018-12-29T23:59:52.898Z,101137.38
